Time;durP1;ratioP1;P1;durP2;ratioP2;P2;SDS_P1;SDS_P2;PMS_P1;PMS_P2;Temp;Humidity;BMP_temperature;BMP_pressure;BME280_temperature;BME280_humidity;BME280_pressure;Samples;Min_cycle;Max_cycle;Signal;HPM_P1;HPM_P2
2022/08/14 00:01:00;;;;;;;4.03;3.63;;;;;;;;;;5096187;28;20435;-77
2022/08/14 00:03:30;;;;;;;3.93;3.63;;;;;;;;;;5096160;28;20469;-74
2022/08/14 00:05:56;;;;;;;4.43;3.60;;;;;;;;;;5096575;28;20419;-75
2022/08/14 00:08:22;;;;;;;3.53;3.20;;;;;;;;;;5096428;28;20790;-74
2022/08/14 00:10:49;;;;;;;4.23;3.43;;;;;;;;;;5095951;28;20490;-74
2022/08/14 00:13:16;;;;;;;4.20;3.80;;;;;;;;;;5096163;28;20411;-75
2022/08/14 00:15:43;;;;;;;4.00;3.60;;;;;;;;;;5096089;28;20422;-75
2022/08/14 00:18:10;;;;;;;4.20;3.70;;;;;;;;;;5096148;28;20488;-75
2022/08/14 00:20:37;;;;;;;3.50;3.20;;;;;;;;;;5095745;28;21010;-75
2022/08/14 00:23:04;;;;;;;4.07;3.77;;;;;;;;;;5096061;28;20462;-74
2022/08/14 00:25:31;;;;;;;5.57;3.83;;;;;;;;;;5096011;28;20468;-75
2022/08/14 00:27:57;;;;;;;3.67;3.37;;;;;;;;;;5095990;28;20414;-75
2022/08/14 00:30:23;;;;;;;4.20;3.30;;;;;;;;;;5095725;28;21002;-75
2022/08/14 00:32:49;;;;;;;4.10;3.67;;;;;;;;;;5095897;28;20407;-75
2022/08/14 00:35:15;;;;;;;4.10;3.53;;;;;;;;;;5095882;28;20407;-74
2022/08/14 00:37:43;;;;;;;4.07;3.77;;;;;;;;;;5094467;28;20962;-75
2022/08/14 00:40:10;;;;;;;5.33;3.47;;;;;;;;;;5095624;28;20935;-75
2022/08/14 00:42:36;;;;;;;4.37;3.80;;;;;;;;;;5094881;28;20942;-73
2022/08/14 00:45:03;;;;;;;8.00;3.77;;;;;;;;;;5095822;28;20415;-74
2022/08/14 00:47:30;;;;;;;4.90;4.00;;;;;;;;;;5095644;28;20399;-74
2022/08/14 00:49:56;;;;;;;3.97;3.60;;;;;;;;;;5095121;28;20455;-75
2022/08/14 00:52:22;;;;;;;3.40;3.10;;;;;;;;;;5095635;28;20501;-74
2022/08/14 00:54:52;;;;;;;3.60;3.30;;;;;;;;;;5095730;28;20407;-74
2022/08/14 00:57:18;;;;;;;4.07;3.77;;;;;;;;;;5095366;28;20426;-75
2022/08/14 00:59:44;;;;;;;5.03;3.97;;;;;;;;;;5095111;28;20423;-74
2022/08/14 01:02:12;;;;;;;4.30;3.77;;;;;;;;;;5094170;28;20417;-76
2022/08/14 01:04:38;;;;;;;3.80;3.50;;;;;;;;;;5095166;28;20760;-76
2022/08/14 01:07:06;;;;;;;4.07;3.53;;;;;;;;;;5095534;28;20407;-77
2022/08/14 01:09:33;;;;;;;7.60;4.43;;;;;;;;;;5094977;28;20411;-75
2022/08/14 01:12:00;;;;;;;4.60;4.20;;;;;;;;;;5094884;28;20423;-76
2022/08/14 01:14:26;;;;;;;5.03;4.20;;;;;;;;;;5095175;28;20831;-76
2022/08/14 01:16:52;;;;;;;6.63;4.10;;;;;;;;;;5095152;28;20403;-76
2022/08/14 01:22:06;;;;;;;3.73;3.43;;;;;;;;;;5095113;28;20430;-75
2022/08/14 01:24:32;;;;;;;5.47;3.87;;;;;;;;;;5094982;28;20471;-75
2022/08/14 01:26:58;;;;;;;4.10;3.70;;;;;;;;;;5095282;28;20400;-74
2022/08/14 01:29:28;;;;;;;4.40;4.00;;;;;;;;;;5094835;28;20776;-75
2022/08/14 01:31:54;;;;;;;4.83;4.33;;;;;;;;;;5094646;28;20508;-75
2022/08/14 01:34:22;;;;;;;6.60;4.90;;;;;;;;;;5093542;28;20425;-76
2022/08/14 01:36:49;;;;;;;5.80;4.30;;;;;;;;;;5094833;28;20403;-75
2022/08/14 01:39:16;;;;;;;5.50;4.57;;;;;;;;;;5094869;28;20419;-75
2022/08/14 01:41:44;;;;;;;5.70;5.20;;;;;;;;;;5094372;28;20451;-75
2022/08/14 01:44:14;;;;;;;4.80;4.40;;;;;;;;;;5094401;28;20545;-77
2022/08/14 01:46:41;;;;;;;5.00;4.20;;;;;;;;;;5094563;28;20410;-76
2022/08/14 01:49:08;;;;;;;4.77;4.37;;;;;;;;;;5094742;28;20409;-76
2022/08/14 01:51:35;;;;;;;4.50;4.10;;;;;;;;;;5094115;28;20466;-76
2022/08/14 01:54:05;;;;;;;5.30;4.23;;;;;;;;;;5094391;28;20773;-76
2022/08/14 01:56:35;;;;;;;5.20;4.43;;;;;;;;;;5094439;28;20464;-76
2022/08/14 01:59:01;;;;;;;5.60;4.97;;;;;;;;;;5094466;28;20422;-76
2022/08/14 02:01:28;;;;;;;4.50;4.10;;;;;;;;;;5094005;28;20870;-76
2022/08/14 02:03:54;;;;;;;5.90;5.40;;;;;;;;;;5094124;28;20463;-76
2022/08/14 02:06:20;;;;;;;5.33;4.83;;;;;;;;;;5094176;28;20400;-76
2022/08/14 02:08:46;;;;;;;5.03;4.53;;;;;;;;;;5094053;28;20615;-76
2022/08/14 02:11:15;;;;;;;5.13;4.70;;;;;;;;;;5093699;28;20777;-76
2022/08/14 02:13:42;;;;;;;5.50;5.03;;;;;;;;;;5094017;28;20411;-75
2022/08/14 02:16:09;;;;;;;5.63;5.13;;;;;;;;;;5093942;28;20418;-76
2022/08/14 02:18:35;;;;;;;5.63;5.03;;;;;;;;;;5093938;28;20770;-76
2022/08/14 02:21:03;;;;;;;7.73;5.07;;;;;;;;;;5093559;28;20438;-76
2022/08/14 02:23:29;;;;;;;6.63;6.03;;;;;;;;;;5093769;28;20473;-75
2022/08/14 02:25:58;;;;;;;5.20;4.70;;;;;;;;;;5092715;28;20413;-75
2022/08/14 02:28:24;;;;;;;5.47;5.07;;;;;;;;;;5093783;28;20403;-75
2022/08/14 02:30:50;;;;;;;6.10;5.60;;;;;;;;;;5093293;28;20836;-76
2022/08/14 02:33:17;;;;;;;5.47;5.07;;;;;;;;;;5093588;28;20777;-76
2022/08/14 02:35:43;;;;;;;7.93;5.23;;;;;;;;;;5093849;28;20499;-76
2022/08/14 02:38:10;;;;;;;6.60;5.57;;;;;;;;;;5093960;28;20399;-75
2022/08/14 02:40:36;;;;;;;5.90;5.40;;;;;;;;;;5093157;28;20442;-76
2022/08/14 02:43:04;;;;;;;6.40;5.80;;;;;;;;;;5093525;28;20454;-75
2022/08/14 02:45:31;;;;;;;5.87;5.30;;;;;;;;;;5093550;28;20410;-76
2022/08/14 02:47:58;;;;;;;6.67;5.97;;;;;;;;;;5093643;28;20759;-75
2022/08/14 02:50:24;;;;;;;6.97;5.70;;;;;;;;;;5093252;28;20418;-76
2022/08/14 02:52:50;;;;;;;7.00;6.27;;;;;;;;;;5093417;28;20413;-75
2022/08/14 02:55:16;;;;;;;6.80;6.10;;;;;;;;;;5093492;28;20768;-76
2022/08/14 02:57:42;;;;;;;7.93;6.60;;;;;;;;;;5093486;28;20407;-75
2022/08/14 03:00:11;;;;;;;7.67;6.20;;;;;;;;;;5092845;28;20438;-76
2022/08/14 03:02:37;;;;;;;6.83;6.30;;;;;;;;;;5093189;28;20484;-76
2022/08/14 03:05:04;;;;;;;6.93;5.83;;;;;;;;;;5092950;28;20792;-76
2022/08/14 03:07:30;;;;;;;6.20;5.60;;;;;;;;;;5093042;28;20514;-76
2022/08/14 03:09:56;;;;;;;6.80;6.10;;;;;;;;;;5093065;28;20891;-76
2022/08/14 03:12:22;;;;;;;8.30;6.50;;;;;;;;;;5093194;28;20426;-75
2022/08/14 03:14:50;;;;;;;6.50;6.00;;;;;;;;;;5093028;28;20419;-76
2022/08/14 03:17:16;;;;;;;6.47;5.97;;;;;;;;;;5093165;28;20425;-75
2022/08/14 03:19:42;;;;;;;6.90;6.30;;;;;;;;;;5092883;28;20770;-76
2022/08/14 03:22:08;;;;;;;9.17;6.23;;;;;;;;;;5093000;28;20421;-76
2022/08/14 03:24:35;;;;;;;8.10;6.63;;;;;;;;;;5093063;28;20424;-76
2022/08/14 03:27:02;;;;;;;6.63;5.50;;;;;;;;;;5093024;28;20419;-76
2022/08/14 03:29:28;;;;;;;7.30;6.40;;;;;;;;;;5093083;28;20527;-75
2022/08/14 03:31:55;;;;;;;6.60;6.00;;;;;;;;;;5092905;28;20442;-75
2022/08/14 03:34:25;;;;;;;7.73;6.60;;;;;;;;;;5091867;28;20964;-76
2022/08/14 03:36:57;;;;;;;6.80;6.20;;;;;;;;;;5093214;28;20422;-76
2022/08/14 03:39:23;;;;;;;11.80;6.63;;;;;;;;;;5093129;28;20501;-76
2022/08/14 03:41:53;;;;;;;7.67;6.97;;;;;;;;;;5092616;28;20434;-76
2022/08/14 03:44:19;;;;;;;9.53;7.00;;;;;;;;;;5092921;28;20534;-76
2022/08/14 03:46:45;;;;;;;7.43;6.63;;;;;;;;;;5092988;28;20443;-76
2022/08/14 03:49:11;;;;;;;7.17;6.57;;;;;;;;;;5092868;28;20972;-75
2022/08/14 03:51:37;;;;;;;9.80;7.57;;;;;;;;;;5092531;28;20423;-76
2022/08/14 03:54:07;;;;;;;7.40;6.80;;;;;;;;;;5093283;28;20403;-76
2022/08/14 03:56:35;;;;;;;7.70;7.00;;;;;;;;;;5093065;28;20410;-75
2022/08/14 03:59:12;;;;;;;8.93;7.83;;;;;;;;;;5092742;28;20410;-75
2022/08/14 04:01:39;;;;;;;8.10;7.30;;;;;;;;;;5092402;28;20434;-76
2022/08/14 04:04:06;;;;;;;9.60;7.20;;;;;;;;;;5092558;28;20505;-76
2022/08/14 04:06:33;;;;;;;7.80;6.83;;;;;;;;;;5092852;28;20424;-76
2022/08/14 04:08:59;;;;;;;8.53;7.70;;;;;;;;;;5092737;28;20434;-76
2022/08/14 04:11:26;;;;;;;7.20;6.50;;;;;;;;;;5092256;28;20427;-76
2022/08/14 04:13:53;;;;;;;8.87;7.93;;;;;;;;;;5092808;28;20409;-75
2022/08/14 04:16:21;;;;;;;8.00;7.07;;;;;;;;;;5092679;28;20407;-76
2022/08/14 04:18:49;;;;;;;7.93;7.13;;;;;;;;;;5094890;28;20417;-76
2022/08/14 04:21:16;;;;;;;7.87;7.20;;;;;;;;;;5095728;28;20422;-76
2022/08/14 04:23:42;;;;;;;9.13;8.20;;;;;;;;;;5096083;28;20486;-76
2022/08/14 04:26:09;;;;;;;8.23;7.43;;;;;;;;;;5096442;28;20414;-76
2022/08/14 04:28:36;;;;;;;8.33;7.50;;;;;;;;;;5096158;28;20410;-76
2022/08/14 04:31:03;;;;;;;8.40;7.40;;;;;;;;;;5096117;28;20465;-76
2022/08/14 04:33:29;;;;;;;8.07;7.37;;;;;;;;;;5094623;28;20461;-76
2022/08/14 04:35:56;;;;;;;8.90;8.00;;;;;;;;;;5096052;28;20414;-75
2022/08/14 04:43:51;;;;;;;7.60;6.90;;;;;;;;;;5095754;28;21084;-75
2022/08/14 04:46:18;;;;;;;9.47;8.20;;;;;;;;;;5095822;28;20403;-76
2022/08/14 04:48:44;;;;;;;8.60;7.90;;;;;;;;;;5095666;28;20412;-75
2022/08/14 04:51:12;;;;;;;8.67;7.97;;;;;;;;;;5095500;28;20559;-75
2022/08/14 04:53:40;;;;;;;14.00;8.10;;;;;;;;;;5095643;28;20405;-75
2022/08/14 04:56:06;;;;;;;11.47;9.00;;;;;;;;;;5095533;28;20460;-75
2022/08/14 04:58:33;;;;;;;8.40;7.60;;;;;;;;;;5095610;28;20422;-76
2022/08/14 05:01:00;;;;;;;11.50;7.47;;;;;;;;;;5095140;28;21028;-75
2022/08/14 05:03:28;;;;;;;8.80;8.00;;;;;;;;;;5095255;28;20466;-75
2022/08/14 05:05:55;;;;;;;13.00;8.17;;;;;;;;;;5095335;28;20770;-76
2022/08/14 05:08:22;;;;;;;9.50;8.70;;;;;;;;;;5095386;28;20828;-75
2022/08/14 05:10:52;;;;;;;9.80;8.17;;;;;;;;;;5094970;28;20425;-75
2022/08/14 05:13:19;;;;;;;9.00;8.10;;;;;;;;;;5095501;28;20755;-76
2022/08/14 05:15:45;;;;;;;8.80;8.00;;;;;;;;;;5095181;28;20419;-78
2022/08/14 05:18:16;;;;;;;11.33;7.77;;;;;;;;;;5095056;28;20793;-76
2022/08/14 05:20:44;;;;;;;8.50;7.70;;;;;;;;;;5094769;28;20479;-75
2022/08/14 05:23:10;;;;;;;9.37;8.47;;;;;;;;;;5094822;28;20953;-76
2022/08/14 05:25:37;;;;;;;8.70;7.90;;;;;;;;;;5095036;28;20986;-76
2022/08/14 05:28:32;;;;;;;9.70;8.70;;;;;;;;;;5094756;28;20410;-75
2022/08/14 05:31:00;;;;;;;8.30;7.60;;;;;;;;;;5081661;28;20487;-75
2022/08/14 05:33:27;;;;;;;7.60;7.00;;;;;;;;;;5095175;28;20416;-75
2022/08/14 05:35:59;;;;;;;9.13;8.30;;;;;;;;;;5094787;28;20422;-75
2022/08/14 05:38:26;;;;;;;8.33;7.63;;;;;;;;;;5095036;28;20547;-75
2022/08/14 05:40:53;;;;;;;8.27;7.57;;;;;;;;;;5093146;28;20587;-75
2022/08/14 05:43:18;;;;;;;8.10;7.40;;;;;;;;;;5094848;28;20454;-75
2022/08/14 05:45:45;;;;;;;9.03;8.23;;;;;;;;;;5093565;28;20403;-75
2022/08/14 05:48:14;;;;;;;8.07;7.37;;;;;;;;;;5094378;28;20434;-75
2022/08/14 05:50:40;;;;;;;8.97;7.50;;;;;;;;;;5094265;28;20434;-76
2022/08/14 05:53:06;;;;;;;9.90;8.43;;;;;;;;;;5088953;28;20420;-75
2022/08/14 05:55:32;;;;;;;9.37;8.37;;;;;;;;;;5056426;28;20481;-77
2022/08/14 05:57:59;;;;;;;11.70;8.37;;;;;;;;;;5074234;28;20451;-75
2022/08/14 06:00:29;;;;;;;8.80;8.00;;;;;;;;;;5073503;28;20447;-75
2022/08/14 06:02:56;;;;;;;9.60;8.70;;;;;;;;;;5074077;28;20443;-76
2022/08/14 06:05:22;;;;;;;9.37;8.47;;;;;;;;;;5073909;28;20431;-76
2022/08/14 06:07:48;;;;;;;11.03;8.53;;;;;;;;;;5073954;28;20404;-79
2022/08/14 06:10:15;;;;;;;8.73;7.60;;;;;;;;;;5073370;28;20428;-79
2022/08/14 06:12:41;;;;;;;9.87;8.90;;;;;;;;;;5073749;28;20772;-80
2022/08/14 06:15:08;;;;;;;8.73;7.93;;;;;;;;;;5073896;28;20419;-79
2022/08/14 06:17:44;;;;;;;11.00;8.60;;;;;;;;;;5072521;28;20924;-79
2022/08/14 06:20:12;;;;;;;9.00;7.70;;;;;;;;;;5073239;28;20454;-79
2022/08/14 06:22:38;;;;;;;8.53;7.73;;;;;;;;;;5073544;28;20455;-79
2022/08/14 06:25:04;;;;;;;7.97;7.30;;;;;;;;;;5073590;28;20888;-79
2022/08/14 06:27:35;;;;;;;10.20;7.10;;;;;;;;;;5073695;28;20466;-78
2022/08/14 06:30:01;;;;;;;8.63;7.63;;;;;;;;;;5073287;28;20462;-80
2022/08/14 06:32:27;;;;;;;8.50;7.80;;;;;;;;;;5073395;28;20412;-80
2022/08/14 06:34:53;;;;;;;8.80;7.40;;;;;;;;;;5073522;28;20777;-79
2022/08/14 06:37:19;;;;;;;9.00;8.20;;;;;;;;;;5073552;28;20422;-79
2022/08/14 06:39:45;;;;;;;8.57;7.60;;;;;;;;;;5073011;28;20411;-79
2022/08/14 06:42:11;;;;;;;8.30;7.47;;;;;;;;;;5072811;28;20443;-79
2022/08/14 06:44:37;;;;;;;10.30;7.13;;;;;;;;;;5073132;28;20419;-80
2022/08/14 06:47:04;;;;;;;11.03;8.37;;;;;;;;;;5073290;28;20419;-79
2022/08/14 06:49:30;;;;;;;8.27;7.47;;;;;;;;;;5072043;28;20418;-81
2022/08/14 06:51:56;;;;;;;8.37;7.50;;;;;;;;;;5073432;28;20431;-80
2022/08/14 06:54:22;;;;;;;7.60;6.90;;;;;;;;;;5073554;28;20412;-80
2022/08/14 06:56:48;;;;;;;8.07;7.37;;;;;;;;;;5073211;28;20445;-80
2022/08/14 06:59:15;;;;;;;8.80;7.80;;;;;;;;;;5073371;28;20771;-80
2022/08/14 07:07:10;;;;;;;7.60;6.43;;;;;;;;;;5073312;28;20465;-81
2022/08/14 07:09:36;;;;;;;7.70;7.00;;;;;;;;;;5072859;28;20411;-81
2022/08/14 07:12:02;;;;;;;7.87;7.17;;;;;;;;;;5071939;28;20428;-81
2022/08/14 07:14:28;;;;;;;9.73;8.10;;;;;;;;;;5073348;28;20435;-80
2022/08/14 07:16:54;;;;;;;8.50;7.70;;;;;;;;;;5072992;28;20458;-80
2022/08/14 07:19:20;;;;;;;8.33;7.23;;;;;;;;;;5073204;28;20519;-80
2022/08/14 07:21:46;;;;;;;7.50;6.90;;;;;;;;;;5079155;28;20437;-81
2022/08/14 07:24:12;;;;;;;8.10;7.30;;;;;;;;;;5081635;28;20494;-81
2022/08/14 07:26:39;;;;;;;8.73;7.47;;;;;;;;;;5083008;28;20434;-79
2022/08/14 07:29:05;;;;;;;8.63;7.33;;;;;;;;;;5075451;28;20419;-80
2022/08/14 07:31:31;;;;;;;7.83;7.10;;;;;;;;;;5072609;28;20440;-80
2022/08/14 07:33:57;;;;;;;7.57;6.97;;;;;;;;;;5073046;28;20451;-80
2022/08/14 07:36:23;;;;;;;8.13;7.33;;;;;;;;;;5073003;28;20412;-81
2022/08/14 07:38:50;;;;;;;7.50;6.90;;;;;;;;;;5073182;28;20559;-80
2022/08/14 07:41:19;;;;;;;9.40;7.23;;;;;;;;;;5072539;28;20802;-80
2022/08/14 07:43:45;;;;;;;7.33;6.80;;;;;;;;;;5072999;28;20467;-79
2022/08/14 07:46:15;;;;;;;7.67;6.97;;;;;;;;;;5072902;28;20400;-81
2022/08/14 07:48:42;;;;;;;8.53;7.83;;;;;;;;;;5073014;28;20423;-81
2022/08/14 07:51:09;;;;;;;7.60;6.87;;;;;;;;;;5072519;28;20423;-80
2022/08/14 07:53:35;;;;;;;8.03;7.20;;;;;;;;;;5076350;28;20404;-81
2022/08/14 07:56:01;;;;;;;7.53;6.90;;;;;;;;;;5076419;28;20427;-80
2022/08/14 07:58:27;;;;;;;8.77;7.87;;;;;;;;;;5076593;28;20443;-81
2022/08/14 08:00:55;;;;;;;8.53;7.33;;;;;;;;;;5076161;28;20420;-81
2022/08/14 08:03:22;;;;;;;8.40;7.40;;;;;;;;;;5076516;28;20453;-81
2022/08/14 08:05:48;;;;;;;8.13;7.33;;;;;;;;;;5076514;28;20426;-81
2022/08/14 08:08:16;;;;;;;8.23;7.00;;;;;;;;;;5076667;28;20443;-81
2022/08/14 08:10:43;;;;;;;7.90;7.20;;;;;;;;;;5077015;28;20415;-82
2022/08/14 08:13:11;;;;;;;7.50;6.90;;;;;;;;;;5076649;28;20400;-79
2022/08/14 08:15:47;;;;;;;8.07;7.27;;;;;;;;;;5081531;28;20408;-79
2022/08/14 08:18:14;;;;;;;7.63;6.77;;;;;;;;;;5076051;28;20403;-81
2022/08/14 08:20:41;;;;;;;7.60;6.83;;;;;;;;;;5083979;28;20442;-81
2022/08/14 08:23:09;;;;;;;6.33;5.83;;;;;;;;;;5096287;28;20450;-79
2022/08/14 08:25:37;;;;;;;7.20;6.60;;;;;;;;;;5096297;28;20411;-81
2022/08/14 08:28:30;;;;;;;6.87;6.27;;;;;;;;;;5096344;28;20407;-81
2022/08/14 08:31:00;;;;;;;6.93;6.40;;;;;;;;;;5093515;28;20435;-81
2022/08/14 08:33:27;;;;;;;7.60;6.87;;;;;;;;;;5094647;28;20422;-79
2022/08/14 08:35:55;;;;;;;7.20;6.50;;;;;;;;;;5096129;28;20459;-79
2022/08/14 08:38:23;;;;;;;6.87;6.27;;;;;;;;;;5096027;28;20411;-78
2022/08/14 08:40:49;;;;;;;6.70;6.10;;;;;;;;;;5095719;28;20447;-79
2022/08/14 08:43:15;;;;;;;6.57;6.07;;;;;;;;;;5095850;28;20446;-79
2022/08/14 08:45:41;;;;;;;6.50;5.90;;;;;;;;;;5095867;28;20769;-80
2022/08/14 08:48:07;;;;;;;6.33;5.80;;;;;;;;;;5095750;28;20453;-78
2022/08/14 08:50:35;;;;;;;6.90;6.30;;;;;;;;;;5103148;22;20518;-78
2022/08/14 08:53:05;;;;;;;6.33;5.83;;;;;;;;;;5035854;28;20421;-79
2022/08/14 08:55:42;;;;;;;5.90;5.40;;;;;;;;;;5035412;28;20498;-80
2022/08/14 08:58:09;;;;;;;6.87;6.30;;;;;;;;;;5035540;28;20420;-79
2022/08/14 09:00:36;;;;;;;6.93;6.33;;;;;;;;;;5034981;28;20825;-81
2022/08/14 09:03:10;;;;;;;5.70;5.17;;;;;;;;;;5035122;28;20830;-78
2022/08/14 09:05:37;;;;;;;7.00;6.40;;;;;;;;;;5033944;28;20433;-78
2022/08/14 09:08:10;;;;;;;7.03;5.67;;;;;;;;;;5035274;28;20413;-79
2022/08/14 09:10:36;;;;;;;5.83;5.43;;;;;;;;;;5034798;28;21012;-80
2022/08/14 09:13:03;;;;;;;5.43;5.03;;;;;;;;;;5035047;28;20417;-80
2022/08/14 09:15:29;;;;;;;6.23;5.70;;;;;;;;;;5035097;28;21085;-77
2022/08/14 09:17:55;;;;;;;5.33;4.83;;;;;;;;;;5034929;28;20813;-78
2022/08/14 09:20:22;;;;;;;6.03;5.53;;;;;;;;;;5034594;28;20456;-79
2022/08/14 09:22:48;;;;;;;5.63;5.23;;;;;;;;;;5034874;28;20814;-80
2022/08/14 09:25:14;;;;;;;5.37;4.97;;;;;;;;;;5017514;28;20417;-79
2022/08/14 09:27:40;;;;;;;5.23;4.83;;;;;;;;;;5029530;28;20414;-80
2022/08/14 09:30:08;;;;;;;5.20;4.70;;;;;;;;;;5028545;28;20484;-80
2022/08/14 09:32:55;;;;;;;4.70;4.13;;;;;;;;;;5034911;28;20447;-80
2022/08/14 09:35:31;;;;;;;4.93;4.53;;;;;;;;;;5034722;28;20448;-77
2022/08/14 09:38:10;;;;;;;5.43;4.80;;;;;;;;;;5034838;28;20412;-77
2022/08/14 09:40:39;;;;;;;6.37;4.93;;;;;;;;;;5034446;28;20428;-78
2022/08/14 09:43:24;;;;;;;4.93;4.53;;;;;;;;;;5034514;28;20951;-78
2022/08/14 09:45:51;;;;;;;5.90;4.70;;;;;;;;;;5034296;28;20409;-77
2022/08/14 09:48:22;;;;;;;4.90;4.33;;;;;;;;;;5034509;28;20496;-78
2022/08/14 09:50:49;;;;;;;4.30;4.00;;;;;;;;;;5033569;28;20944;-79
2022/08/14 09:53:36;;;;;;;4.70;4.30;;;;;;;;;;5016677;28;20853;-79
2022/08/14 09:56:03;;;;;;;4.47;4.17;;;;;;;;;;5034079;28;20454;-78
2022/08/14 09:58:55;;;;;;;4.40;4.03;;;;;;;;;;5028225;28;20405;-79
2022/08/14 10:01:24;;;;;;;6.10;4.30;;;;;;;;;;5031821;28;20455;-75
2022/08/14 10:03:51;;;;;;;4.20;3.90;;;;;;;;;;5033900;28;20551;-76
2022/08/14 10:06:18;;;;;;;3.90;3.43;;;;;;;;;;5034066;28;20551;-76
2022/08/14 10:08:44;;;;;;;4.80;3.90;;;;;;;;;;5034110;28;20405;-75
2022/08/14 10:11:16;;;;;;;5.73;4.10;;;;;;;;;;5033554;28;20512;-74
2022/08/14 10:13:42;;;;;;;4.57;4.10;;;;;;;;;;5034074;28;20417;-76
2022/08/14 10:16:09;;;;;;;4.53;4.23;;;;;;;;;;5033778;28;20445;-74
2022/08/14 10:18:36;;;;;;;4.60;4.20;;;;;;;;;;5034059;28;20751;-74
2022/08/14 10:21:03;;;;;;;4.10;3.80;;;;;;;;;;5033551;28;20836;-76
2022/08/14 10:23:41;;;;;;;5.03;4.73;;;;;;;;;;5033560;28;20896;-75
2022/08/14 10:26:07;;;;;;;4.20;3.83;;;;;;;;;;5033378;28;20409;-74
2022/08/14 10:28:38;;;;;;;3.93;3.63;;;;;;;;;;5033690;28;20467;-73
2022/08/14 10:31:15;;;;;;;8.13;6.23;;;;;;;;;;5033247;28;20482;-74
2022/08/14 10:33:41;;;;;;;4.30;3.90;;;;;;;;;;5033544;28;20431;-74
2022/08/14 10:36:07;;;;;;;4.00;3.70;;;;;;;;;;5027436;28;20417;-74
2022/08/14 10:38:34;;;;;;;3.67;3.47;;;;;;;;;;5033704;28;20819;-74
2022/08/14 10:41:15;;;;;;;5.50;3.73;;;;;;;;;;5033248;28;20437;-75
2022/08/14 10:43:43;;;;;;;6.40;3.63;;;;;;;;;;5033605;28;20462;-75
2022/08/14 10:46:13;;;;;;;3.70;3.40;;;;;;;;;;5033468;28;20435;-75
2022/08/14 10:48:41;;;;;;;3.70;3.40;;;;;;;;;;5033227;28;20941;-75
2022/08/14 10:51:07;;;;;;;3.50;3.20;;;;;;;;;;5032726;28;20968;-74
2022/08/14 10:53:34;;;;;;;4.93;3.57;;;;;;;;;;5033430;28;20413;-75
2022/08/14 10:56:02;;;;;;;3.87;3.57;;;;;;;;;;5033217;28;20417;-75
2022/08/14 10:58:31;;;;;;;4.37;3.30;;;;;;;;;;5033241;28;20448;-75
2022/08/14 11:00:58;;;;;;;3.23;3.03;;;;;;;;;;5032764;28;20471;-73
2022/08/14 11:03:27;;;;;;;3.47;3.20;;;;;;;;;;5033301;28;20456;-74
2022/08/14 11:05:54;;;;;;;3.70;3.40;;;;;;;;;;5015484;28;20421;-74
2022/08/14 11:08:30;;;;;;;3.80;3.50;;;;;;;;;;5032984;28;20428;-74
2022/08/14 11:10:56;;;;;;;4.63;3.70;;;;;;;;;;5032738;28;20770;-76
2022/08/14 11:13:24;;;;;;;3.70;3.40;;;;;;;;;;5033123;28;20435;-74
2022/08/14 11:15:50;;;;;;;4.13;3.20;;;;;;;;;;5032562;28;20450;-75
2022/08/14 11:18:17;;;;;;;6.60;3.10;;;;;;;;;;5015367;28;20517;-74
2022/08/14 11:20:53;;;;;;;3.47;3.17;;;;;;;;;;5032357;28;20804;-74
2022/08/14 11:23:20;;;;;;;3.40;3.20;;;;;;;;;;5032836;28;20456;-74
2022/08/14 11:25:48;;;;;;;3.53;3.03;;;;;;;;;;5032857;28;20420;-75
2022/08/14 11:28:14;;;;;;;5.90;3.40;;;;;;;;;;5035840;28;20784;-75
2022/08/14 11:30:43;;;;;;;3.53;3.33;;;;;;;;;;5035891;28;20436;-74
2022/08/14 11:33:09;;;;;;;4.03;3.73;;;;;;;;;;5035984;28;20772;-75
2022/08/14 11:35:36;;;;;;;3.70;3.40;;;;;;;;;;5036457;28;20408;-73
2022/08/14 11:38:03;;;;;;;3.50;2.93;;;;;;;;;;5036090;28;20454;-75
2022/08/14 11:40:34;;;;;;;2.93;2.73;;;;;;;;;;5036067;28;20468;-74
2022/08/14 11:43:00;;;;;;;3.20;2.90;;;;;;;;;;5036437;28;20457;-73
2022/08/14 11:45:32;;;;;;;3.50;3.27;;;;;;;;;;5036636;28;20415;-74
2022/08/14 11:47:58;;;;;;;3.07;2.87;;;;;;;;;;5036604;28;20412;-74
2022/08/14 11:50:29;;;;;;;3.80;3.00;;;;;;;;;;5035900;28;20937;-74
2022/08/14 11:52:56;;;;;;;3.43;2.90;;;;;;;;;;5036029;28;20417;-74
2022/08/14 11:55:23;;;;;;;3.23;3.03;;;;;;;;;;5036439;28;20413;-75
2022/08/14 11:58:02;;;;;;;3.43;3.13;;;;;;;;;;5018695;28;20901;-74
2022/08/14 12:00:29;;;;;;;5.77;3.40;;;;;;;;;;5006531;28;20453;-74
2022/08/14 12:02:56;;;;;;;3.73;3.33;;;;;;;;;;5027618;28;20507;-76
2022/08/14 12:05:38;;;;;;;3.00;2.70;;;;;;;;;;5025397;28;20408;-75
2022/08/14 12:08:06;;;;;;;5.80;2.73;;;;;;;;;;5026589;28;20444;-75
2022/08/14 12:10:33;;;;;;;3.03;2.60;;;;;;;;;;5030421;28;20498;-74
2022/08/14 12:12:59;;;;;;;4.00;2.53;;;;;;;;;;5027009;28;20429;-77
2022/08/14 12:15:28;;;;;;;2.90;2.70;;;;;;;;;;5025671;28;20425;-75
2022/08/14 12:17:55;;;;;;;4.53;4.10;;;;;;;;;;5024904;28;20413;-75
2022/08/14 12:20:28;;;;;;;3.47;3.13;;;;;;;;;;5022737;28;20796;-75
2022/08/14 12:22:54;;;;;;;4.63;3.10;;;;;;;;;;5017759;28;20572;-75
2022/08/14 12:25:22;;;;;;;6.00;3.23;;;;;;;;;;5032933;28;20413;-74
2022/08/14 12:27:49;;;;;;;3.40;3.07;;;;;;;;;;5035839;28;20405;-74
2022/08/14 12:30:26;;;;;;;2.70;2.50;;;;;;;;;;5034711;28;20420;-74
2022/08/14 12:32:55;;;;;;;3.70;2.80;;;;;;;;;;5015830;28;20416;-73
2022/08/14 12:35:22;;;;;;;3.80;2.60;;;;;;;;;;5015757;28;20468;-73
2022/08/14 12:37:49;;;;;;;2.80;2.60;;;;;;;;;;5015480;28;20413;-74
2022/08/14 12:40:16;;;;;;;3.40;3.10;;;;;;;;;;5013686;28;20441;-76
2022/08/14 12:42:43;;;;;;;3.50;2.80;;;;;;;;;;5015930;28;20461;-76
2022/08/14 12:45:11;;;;;;;2.87;2.67;;;;;;;;;;4998327;28;20918;-76
2022/08/14 12:47:38;;;;;;;2.93;2.73;;;;;;;;;;5015689;28;20425;-77
2022/08/14 12:50:04;;;;;;;3.00;2.70;;;;;;;;;;5015278;28;20484;-75
2022/08/14 12:52:32;;;;;;;2.80;2.60;;;;;;;;;;5015566;28;20795;-75
2022/08/14 12:55:03;;;;;;;3.57;3.20;;;;;;;;;;5015433;28;20406;-75
2022/08/14 12:57:47;;;;;;;3.43;3.10;;;;;;;;;;5015403;28;20418;-75
2022/08/14 13:00:14;;;;;;;2.97;2.77;;;;;;;;;;5015254;28;20426;-76
2022/08/14 13:02:41;;;;;;;3.10;2.90;;;;;;;;;;5014185;28;20448;-75
2022/08/14 13:05:08;;;;;;;3.40;3.20;;;;;;;;;;5015414;28;20410;-76
2022/08/14 13:07:36;;;;;;;3.53;3.20;;;;;;;;;;5015639;28;20438;-75
2022/08/14 13:10:03;;;;;;;4.37;3.10;;;;;;;;;;5014972;28;20410;-76
2022/08/14 13:12:31;;;;;;;4.77;3.07;;;;;;;;;;5015510;28;20414;-75
2022/08/14 13:14:58;;;;;;;3.50;3.30;;;;;;;;;;5015248;28;20401;-75
2022/08/14 13:17:25;;;;;;;3.40;3.10;;;;;;;;;;5015043;28;20529;-76
2022/08/14 13:19:57;;;;;;;3.10;2.90;;;;;;;;;;5014743;28;20416;-76
2022/08/14 13:22:25;;;;;;;3.30;2.53;;;;;;;;;;5015093;28;20719;-75
2022/08/14 13:24:52;;;;;;;3.43;3.23;;;;;;;;;;5015075;28;20774;-76
2022/08/14 13:27:20;;;;;;;2.80;2.70;;;;;;;;;;5014973;28;20464;-76
2022/08/14 13:29:46;;;;;;;3.17;2.97;;;;;;;;;;5014659;28;20416;-76
2022/08/14 13:32:13;;;;;;;5.07;3.10;;;;;;;;;;5023470;28;20425;-76
2022/08/14 13:34:39;;;;;;;3.10;2.77;;;;;;;;;;5007666;28;20421;-76
2022/08/14 13:37:06;;;;;;;3.30;3.10;;;;;;;;;;5028390;28;20511;-76
2022/08/14 13:39:34;;;;;;;3.20;3.00;;;;;;;;;;5022429;28;20508;-77
2022/08/14 13:42:03;;;;;;;3.93;3.53;;;;;;;;;;5028278;28;20447;-76
2022/08/14 13:44:34;;;;;;;3.13;2.93;;;;;;;;;;5025152;28;20472;-77
2022/08/14 13:47:05;;;;;;;2.93;2.73;;;;;;;;;;5022542;28;20421;-77
2022/08/14 13:49:31;;;;;;;3.20;2.60;;;;;;;;;;5021649;28;20410;-76
2022/08/14 13:51:57;;;;;;;2.90;2.70;;;;;;;;;;5022073;28;20457;-75
2022/08/14 13:54:26;;;;;;;2.87;2.67;;;;;;;;;;5028286;28;20441;-76
2022/08/14 13:56:54;;;;;;;3.10;2.90;;;;;;;;;;5034469;28;20912;-75
2022/08/14 13:59:23;;;;;;;3.40;2.57;;;;;;;;;;5034229;28;20409;-78
2022/08/14 14:01:49;;;;;;;3.00;2.80;;;;;;;;;;5033879;28;20447;-75
2022/08/14 14:04:16;;;;;;;3.30;3.10;;;;;;;;;;5034216;28;20530;-78
2022/08/14 14:06:46;;;;;;;3.93;3.07;;;;;;;;;;5034284;28;20414;-77
2022/08/14 14:09:14;;;;;;;3.53;2.80;;;;;;;;;;5033918;28;20497;-77
2022/08/14 14:11:42;;;;;;;3.13;2.93;;;;;;;;;;5033481;28;20952;-76
2022/08/14 14:14:11;;;;;;;2.60;2.40;;;;;;;;;;5032320;28;20451;-75
2022/08/14 14:16:37;;;;;;;3.13;2.90;;;;;;;;;;5033837;28;20508;-76
2022/08/14 14:19:04;;;;;;;3.50;3.20;;;;;;;;;;5029728;28;20970;-76
2022/08/14 14:21:30;;;;;;;2.90;2.70;;;;;;;;;;5019112;28;20437;-76
2022/08/14 14:23:57;;;;;;;3.10;2.90;;;;;;;;;;5013844;28;20465;-75
2022/08/14 14:26:23;;;;;;;3.50;3.20;;;;;;;;;;5015035;28;20481;-75
2022/08/14 14:28:51;;;;;;;3.10;2.80;;;;;;;;;;5033720;28;20913;-75
2022/08/14 14:31:22;;;;;;;3.40;3.20;;;;;;;;;;5033327;28;20773;-76
2022/08/14 14:33:50;;;;;;;2.93;2.63;;;;;;;;;;5029002;28;20425;-76
2022/08/14 14:36:25;;;;;;;3.80;3.20;;;;;;;;;;5013861;28;20964;-76
2022/08/14 14:39:01;;;;;;;3.10;2.80;;;;;;;;;;5014615;28;20768;-76
2022/08/14 14:41:29;;;;;;;3.47;2.90;;;;;;;;;;5013391;28;20430;-76
2022/08/14 14:43:57;;;;;;;2.83;2.50;;;;;;;;;;5013839;28;20458;-79
2022/08/14 14:46:24;;;;;;;2.93;2.73;;;;;;;;;;5013462;28;20413;-78
2022/08/14 14:48:50;;;;;;;3.10;2.90;;;;;;;;;;5013700;28;20887;-75
2022/08/14 14:51:16;;;;;;;3.23;3.03;;;;;;;;;;5013233;28;20453;-76
2022/08/14 14:53:43;;;;;;;2.80;2.60;;;;;;;;;;5013655;28;20472;-76
2022/08/14 14:56:09;;;;;;;3.50;3.20;;;;;;;;;;5013680;28;20882;-76
2022/08/14 14:58:37;;;;;;;4.50;2.40;;;;;;;;;;5013500;28;20418;-75
2022/08/14 15:01:06;;;;;;;3.20;2.60;;;;;;;;;;5012903;28;20452;-76